Terminal Aerodrome Forecast
Issued by NWS Blacksburg, VA

Current Version | Previous Version | Graphics & Text | Print | Product List | Glossary On
Versions: 1 2 3 4 5 6 7 8 9 10 11 12 13 14 15 16 17 18 19 20 21 22 23 24 25 26 27 28 29 30 31 32 33 34 35 36 37 38 39 40 41 42 43 44 45 46
000
FTUS41 KRNK 181726
TAFBLF
TAF
KBLF 181726Z 1818/1918 27004KT P6SM SCT012 OVC035
     FM182300 VRB03KT P6SM SCT045 BKN080
     FM190600 12004KT 5SM BR BKN040
     FM191100 13003KT 2SM BR SCT005 BKN015
     FM191500 15007KT P6SM BKN035=

USA.gov is the U.S. government's official web portal to all federal, state and local government web resources and services.